Ambleve, Belgium
Current Conditions -  °F | °C
As of 8:25 AM on Wednesday 26 Nov 2014 (Local Time) from EBLB Reporting Station
Broken Clouds Broken Clouds  
Wind Chill: 39°   Ceiling: 300
Heat Index: 39°   Visibility: 2.3mi
Dew Point: 37°   Wind: 2mph
Humidity: 93%   Direction: NA
Pressure: 29.94"   Gusts: NA
Location:  50.35°N, 6.17°E
Report Text: EBLB 260725Z AUTO VRB02KT 3700 BKN003/// 04/03 Q1014 YLO
Loading
Personal Weather Stations






























Interactive Weather Map New forecast layout! Learn more

10-Day Weather Forecast

Advertisements
Track Severe Weather on mobile